• Join FlightAware (Why Join?)
  • Login
  • US Flag 
03:15AM EDT


 

Airport Tracker/Info


-or-


 

Live Flight TrackerFlight Track Log ✈ N319EE ✈ 02-Oct-2013 ✈ KPWM - KROC

Flight Track Log - Related Links

Times and Time Zones

All times are in EDT time to prevent confusion due to time zone crossing. See the N319EE flight status page for this flight to view local times or setup timezone preferences in your user account.

Time Position Orientation Groundspeed Altitude Reporting Facility
EDT Latitude Longitude Course Direction KTS MPH feet Rate Location/Type
08:10PM 43.6694 -70.4739 284° West 158 182 5,000  Level Boston Center
08:11PM 43.6767 -70.5283 280° West 158 182 6,600 1,680 Climbing Boston Center
08:12PM 43.6817 -70.5942 276° West 158 182 8,400 1,740 Climbing Boston Center
08:13PM 43.6786 -70.6517 266° West 163 188 10,200 1,860 Climbing Boston Center
08:14PM 43.6733 -70.7206 264° West 171 197 12,200 1,560 Climbing Boston Center
08:15PM 43.6700 -70.7781 265° West 171 197 13,400 1,560 Climbing Boston Center
08:16PM 43.6647 -70.8472 264° West 171 197 15,300 1,320 Climbing Boston Center
08:17PM 43.6614 -70.9047 265° West 171 197 16,000 240 Climbing Boston Center
08:18PM 43.6561 -70.9908 265° West 188 216 15,900 -60 Descending Boston Center
08:19PM 43.6489 -71.0686 263° West 232 267 15,900  Level Boston Center
08:20PM 43.6436 -71.1664 266° West 237 273 15,900  Level Boston Center
08:21PM 43.6361 -71.2439 262° West 237 273 16,000  Climbing Boston Center
08:22PM 43.6308 -71.3328 265° West 237 273 16,000  Level Boston Center
08:23PM 43.6233 -71.4278 264° West 237 273 16,000  Level Boston Center
08:24PM 43.6158 -71.5053 262° West 237 273 16,000  Level Boston Center
08:25PM 43.6103 -71.6028 266° West 237 273 16,000  Level Boston Center
08:26PM 43.6044 -71.6803 264° West 237 273 16,000  Level Boston Center
08:27PM 43.5947 -71.7778 262° West 237 273 16,000  Level Boston Center
08:28PM 43.5908 -71.8553 266° West 237 273 16,000  Level Boston Center
08:29PM 43.5831 -71.9500 264° West 237 273 16,000  Level Boston Center
08:30PM 43.5750 -72.0389 263° West 237 273 16,000  Level Boston Center
08:31PM 43.5692 -72.1250 265° West 237 273 16,000  Level Boston Center
08:32PM 43.5611 -72.2108 263° West 237 273 16,000  Level Boston Center
08:33PM 43.5550 -72.2969 264° West 237 273 16,000  Level Boston Center
08:34PM 43.5486 -72.3886 265° West 237 273 16,000  Level Boston Center
08:35PM 43.5403 -72.4744 262° West 237 273 16,000  Level Boston Center
08:36PM 43.5319 -72.5633 263° West 237 273 16,000  Level Boston Center
08:37PM 43.5256 -72.6519 264° West 237 273 16,000  Level Boston Center
08:38PM 43.5169 -72.7436 263° West 237 273 16,000  Level Boston Center
08:39PM 43.5083 -72.8294 262° West 237 273 16,000  Level Boston Center
08:40PM 43.5039 -72.9208 266° West 237 273 16,000  Level Boston Center
08:41PM 43.4953 -72.9925 261° West 237 273 16,000  Level Boston Center
08:42PM 43.4844 -73.0839 261° West 237 273 16,000  Level Boston Center
08:43PM 43.4756 -73.1753 262° West 237 273 16,000  Level Boston Center
08:44PM 43.4686 -73.2611 264° West 237 273 16,000  Level Boston Center
08:45PM 43.4597 -73.3497 262° West 237 273 16,000  Level Boston Center
08:46PM 43.4528 -73.4353 264° West 237 273 16,000  Level Boston Center
08:47PM 43.4436 -73.5267 262° West 237 273 16,000  Level Boston Center
08:48PM 43.4344 -73.6122 262° West 237 273 16,000  Level Boston Center
08:49PM 43.4272 -73.7036 264° West 237 273 16,000  Level Boston Center
08:50PM 43.4178 -73.7950 262° West 237 273 16,000  Level Boston Center
08:51PM 43.4103 -73.8892 264° West 237 273 16,000  Level Boston Center
08:52PM 43.3986 -73.9775 260° West 237 273 16,000  Level Boston Center
08:53PM 43.3911 -74.0744 264° West 237 273 16,000  Level Boston Center
08:54PM 43.3833 -74.1714 264° West 242 278 16,000  Level Boston Center
08:55PM 43.3739 -74.2539 261° West 242 278 16,000 -60 Level Boston Center
08:56PM 43.3700 -74.3536 267° West 242 278 15,900 -60 Descending Boston Center
08:57PM 43.3647 -74.4336 265° West 236 272 15,900  Level Boston Center
08:58PM 43.3586 -74.5333 265° West 236 272 16,000  Climbing Boston Center
08:59PM 43.3528 -74.6244 265° West 236 272 16,000  Level Boston Center
09:00PM 43.3489 -74.7128 267° West 236 272 16,000  Level Boston Center
09:01PM 43.3431 -74.8039 265° West 236 272 16,000  Level Boston Center
09:02PM 43.3389 -74.8925 266° West 236 272 16,000  Level Boston Center
09:03PM 43.3328 -74.9833 265° West 236 272 16,000  Level Boston Center
09:04PM 43.3267 -75.0689 264° West 236 272 16,000  Level Boston Center
09:05PM 43.3206 -75.1569 265° West 236 272 16,000  Level Boston Center
09:06PM 43.3144 -75.2311 264° West 236 272 16,000  Level Boston Center
09:07PM 43.3100 -75.3336 267° West 241 277 16,000  Level Boston Center
09:08PM 43.3058 -75.4161 266° West 235 270 16,000  Level Boston Center
09:09PM 43.3014 -75.5044 266° West 235 270 16,000  Level Boston Center
09:10PM 43.2947 -75.5897 264° West 235 270 16,000  Level Boston Center
09:11PM 43.2881 -75.6778 264° West 235 270 16,000  Level Boston Center
09:12PM 43.2833 -75.7689 266° West 235 270 16,000  Level Boston Center
09:13PM 43.2767 -75.8539 264° West 235 270 16,000  Level Boston Center
09:14PM 43.2719 -75.9422 266° West 235 270 16,000  Level Boston Center
09:15PM 43.2672 -76.0303 266° West 235 270 16,000  Level Boston Center
09:17PM 43.2511 -76.2011 263° West 234 269 16,000  Level Cleveland Center
09:18PM 43.2433 -76.3064 264° West 233 268 16,000 -60 Level Cleveland Center
09:19PM 43.2367 -76.3956 264° West 235 270 15,900 -660 Descending Cleveland Center
09:20PM 43.2297 -76.4892 264° West 245 282 14,700 -1,320 Descending Cleveland Center
09:21PM 43.2219 -76.5925 264° West 268 308 13,300 -1,260 Descending Cleveland Center
09:22PM 43.2178 -76.6819 266° West 275 316 12,500 -1,020 Descending Cleveland Center
09:22PM 43.2150 -76.6972 256° West 274 315 12,300 -960 Descending Cleveland Center
09:23PM 43.2086 -76.7983 265° West 274 315 11,500 -900 Descending Cleveland Center
09:23PM 43.2058 -76.8008 213° Southwest 277 319 11,400 -600 Descending Cleveland Center
09:24PM 43.1989 -76.8858 264° West 270 311 11,000 -420 Descending Cleveland Center
09:24PM 43.1981 -76.9169 268° West 268 308 11,000  Level Cleveland Center
09:25PM 43.1922 -76.9825 263° West 247 284 11,000 -420 Level Cleveland Center
09:25PM 43.1906 -77.0094 265° West 250 288 10,600 -1,680 Descending Cleveland Center
09:26PM 43.1858 -77.0764 264° West 251 289 9,300 -1,800 Descending Cleveland Center
09:26PM 43.1819 -77.1053 260° West 255 293 8,800 -1,680 Descending Cleveland Center
09:27PM 43.1761 -77.1783 264° West 251 289 7,600 -1,500 Descending Cleveland Center
09:27PM 43.1733 -77.1983 259° West 251 289 7,300 -1,500 Descending Cleveland Center
09:28PM 43.1678 -77.2689 264° West 242 278 6,100 -1,380 Descending Cleveland Center
09:28PM 43.1661 -77.2889 263° West 244 281 5,900 -1,020 Descending Cleveland Center
09:29PM 43.1639 -77.3575 267° West 226 260 5,100 -1,200 Descending Cleveland Center
09:29PM 43.1611 -77.3739 257° West 228 262 4,700 -1,500 Descending Cleveland Center
09:30PM 43.1539 -77.4447 262° West 220 253 3,500 -1,380 Descending Cleveland Center
09:30PM 43.1533 -77.4567 266° West 222 255 3,300 -1,080 Descending Cleveland Center
09:31PM 43.1458 -77.5511 264° West 212 244 2,100 -900 Descending Cleveland Center
09:32PM 43.1403 -77.6006 261° West 168 193 1,800 -600 Descending Cleveland Center
09:32PM 43.1361 -77.6158 250° West 190 219 1,500 -1,020 Descending Cleveland Center
09:33PM 43.1250 -77.6489 245° Southwest 125 144 800 -900 Descending Cleveland Center
09:33PM 43.1211 -77.6589 242° Southwest 156 180 600 -660 Descending Cleveland Center
09:35PM 43.1167 -77.6667 270° West  Level FlightAware Approximate
09:42PM 43.1191 -77.6719 270° West  Level Estimated